Terminal Aerodrome Forecast
Issued by NWS Cleveland, OH

Home | Current Version | Previous Version | Graphics & Text | Print | Product List | Glossary On
Versions: 1 2 3 4 5 6 7 8 9 10 11 12 13 14 15 16 17 18 19
312
FTUS41 KCLE 220829 AAB
TAFTOL
TAF AMD
KTOL 220829Z 2208/2306 23005KT 6SM BR VCSH SCT018 BKN120
      TEMPO 2208/2212 5SM BR BKN018
     FM221500 25010KT 6SM HZ BKN040
     FM230100 27004KT P6SM SCT045=

USA.gov is the U.S. government's official web portal to all federal, state and local government web resources and services.